sensor_id;sensor_type;location;lat;lon;timestamp;temperature;humidity
7384;DHT22;3733;47.994;8.820;2024-03-08T00:01:09;2.80;99.90
7384;DHT22;3733;47.994;8.820;2024-03-08T00:03:35;2.80;99.90
7384;DHT22;3733;47.994;8.820;2024-03-08T00:06:01;2.70;99.90
7384;DHT22;3733;47.994;8.820;2024-03-08T00:08:27;2.70;99.90
7384;DHT22;3733;47.994;8.820;2024-03-08T00:10:52;2.70;99.90
7384;DHT22;3733;47.994;8.820;2024-03-08T00:13:18;2.70;99.90
7384;DHT22;3733;47.994;8.820;2024-03-08T00:15:43;2.70;99.90
7384;DHT22;3733;47.994;8.820;2024-03-08T00:18:09;2.70;99.90
7384;DHT22;3733;47.994;8.820;2024-03-08T00:20:35;2.70;99.90
7384;DHT22;3733;47.994;8.820;2024-03-08T00:23:01;2.70;99.90
7384;DHT22;3733;47.994;8.820;2024-03-08T00:25:26;2.70;99.90
7384;DHT22;3733;47.994;8.820;2024-03-08T00:27:53;2.70;99.90
7384;DHT22;3733;47.994;8.820;2024-03-08T00:30:22;2.70;99.90
7384;DHT22;3733;47.994;8.820;2024-03-08T00:32:48;2.70;99.90
7384;DHT22;3733;47.994;8.820;2024-03-08T00:35:14;2.60;99.90
7384;DHT22;3733;47.994;8.820;2024-03-08T00:37:40;2.60;99.90
7384;DHT22;3733;47.994;8.820;2024-03-08T00:40:07;2.70;99.90
7384;DHT22;3733;47.994;8.820;2024-03-08T00:42:34;2.70;99.90
7384;DHT22;3733;47.994;8.820;2024-03-08T00:45:01;2.70;99.90
7384;DHT22;3733;47.994;8.820;2024-03-08T00:47:26;2.70;99.90
7384;DHT22;3733;47.994;8.820;2024-03-08T00:49:52;2.70;99.90
7384;DHT22;3733;47.994;8.820;2024-03-08T00:52:18;2.70;99.90
7384;DHT22;3733;47.994;8.820;2024-03-08T00:54:44;2.70;99.90
7384;DHT22;3733;47.994;8.820;2024-03-08T00:57:10;2.70;99.90
7384;DHT22;3733;47.994;8.820;2024-03-08T00:59:38;2.70;99.90
7384;DHT22;3733;47.994;8.820;2024-03-08T01:02:03;2.70;99.90
7384;DHT22;3733;47.994;8.820;2024-03-08T01:04:29;2.70;99.90
7384;DHT22;3733;47.994;8.820;2024-03-08T01:06:56;2.70;99.90
7384;DHT22;3733;47.994;8.820;2024-03-08T01:09:22;2.70;99.90
7384;DHT22;3733;47.994;8.820;2024-03-08T01:11:48;2.70;99.90
7384;DHT22;3733;47.994;8.820;2024-03-08T01:14:15;2.70;99.90
7384;DHT22;3733;47.994;8.820;2024-03-08T01:16:40;2.70;99.90
7384;DHT22;3733;47.994;8.820;2024-03-08T01:19:06;2.70;99.90
7384;DHT22;3733;47.994;8.820;2024-03-08T01:21:32;2.70;99.90
7384;DHT22;3733;47.994;8.820;2024-03-08T01:23:57;2.70;99.90
7384;DHT22;3733;47.994;8.820;2024-03-08T01:26:23;2.70;99.90
7384;DHT22;3733;47.994;8.820;2024-03-08T01:28:49;2.70;99.90
7384;DHT22;3733;47.994;8.820;2024-03-08T01:31:15;2.60;99.90
7384;DHT22;3733;47.994;8.820;2024-03-08T01:33:41;2.60;99.90
7384;DHT22;3733;47.994;8.820;2024-03-08T01:36:07;2.60;99.90
7384;DHT22;3733;47.994;8.820;2024-03-08T01:38:33;2.60;99.90
7384;DHT22;3733;47.994;8.820;2024-03-08T01:40:59;2.60;99.90
7384;DHT22;3733;47.994;8.820;2024-03-08T01:43:29;2.60;99.90
7384;DHT22;3733;47.994;8.820;2024-03-08T01:45:57;2.60;99.90
7384;DHT22;3733;47.994;8.820;2024-03-08T01:48:24;2.60;99.90
7384;DHT22;3733;47.994;8.820;2024-03-08T01:50:50;2.60;99.90
7384;DHT22;3733;47.994;8.820;2024-03-08T01:53:18;2.60;99.90
7384;DHT22;3733;47.994;8.820;2024-03-08T01:55:46;2.60;99.90
7384;DHT22;3733;47.994;8.820;2024-03-08T01:58:13;2.60;99.90
7384;DHT22;3733;47.994;8.820;2024-03-08T02:00:43;2.60;99.90
7384;DHT22;3733;47.994;8.820;2024-03-08T02:03:09;2.60;99.90
7384;DHT22;3733;47.994;8.820;2024-03-08T02:05:36;2.60;99.90
7384;DHT22;3733;47.994;8.820;2024-03-08T02:08:04;2.60;99.90
7384;DHT22;3733;47.994;8.820;2024-03-08T02:10:35;2.60;99.90
7384;DHT22;3733;47.994;8.820;2024-03-08T02:13:04;2.60;99.90
7384;DHT22;3733;47.994;8.820;2024-03-08T02:18:15;2.50;99.90
7384;DHT22;3733;47.994;8.820;2024-03-08T02:20:42;2.50;99.90
7384;DHT22;3733;47.994;8.820;2024-03-08T02:23:08;2.50;99.90
7384;DHT22;3733;47.994;8.820;2024-03-08T02:25:35;2.50;99.90
7384;DHT22;3733;47.994;8.820;2024-03-08T02:28:01;2.50;99.90
7384;DHT22;3733;47.994;8.820;2024-03-08T02:30:26;2.50;99.90
7384;DHT22;3733;47.994;8.820;2024-03-08T02:32:56;2.50;99.90
7384;DHT22;3733;47.994;8.820;2024-03-08T02:35:21;2.40;99.90
7384;DHT22;3733;47.994;8.820;2024-03-08T02:37:47;2.50;99.90
7384;DHT22;3733;47.994;8.820;2024-03-08T02:40:13;2.50;99.90
7384;DHT22;3733;47.994;8.820;2024-03-08T02:42:39;2.50;99.90
7384;DHT22;3733;47.994;8.820;2024-03-08T02:45:05;2.50;99.90
7384;DHT22;3733;47.994;8.820;2024-03-08T02:47:31;2.50;99.90
7384;DHT22;3733;47.994;8.820;2024-03-08T02:49:57;2.40;99.90
7384;DHT22;3733;47.994;8.820;2024-03-08T02:52:23;2.50;99.90
7384;DHT22;3733;47.994;8.820;2024-03-08T02:54:48;2.50;99.90
7384;DHT22;3733;47.994;8.820;2024-03-08T02:57:15;2.40;99.90
7384;DHT22;3733;47.994;8.820;2024-03-08T02:59:41;2.50;99.90
7384;DHT22;3733;47.994;8.820;2024-03-08T03:02:07;2.50;99.90
7384;DHT22;3733;47.994;8.820;2024-03-08T03:04:35;2.50;99.90
7384;DHT22;3733;47.994;8.820;2024-03-08T03:07:01;2.40;99.90
7384;DHT22;3733;47.994;8.820;2024-03-08T03:09:27;2.40;99.90
7384;DHT22;3733;47.994;8.820;2024-03-08T03:11:56;2.40;99.90
7384;DHT22;3733;47.994;8.820;2024-03-08T03:14:22;2.40;99.90
7384;DHT22;3733;47.994;8.820;2024-03-08T03:16:47;2.40;99.90
7384;DHT22;3733;47.994;8.820;2024-03-08T03:19:13;2.40;99.90
7384;DHT22;3733;47.994;8.820;2024-03-08T03:21:40;2.30;99.90
7384;DHT22;3733;47.994;8.820;2024-03-08T03:24:08;2.30;99.90
7384;DHT22;3733;47.994;8.820;2024-03-08T03:26:38;2.30;99.90
7384;DHT22;3733;47.994;8.820;2024-03-08T03:29:07;2.30;99.90
7384;DHT22;3733;47.994;8.820;2024-03-08T03:31:35;2.30;99.90
7384;DHT22;3733;47.994;8.820;2024-03-08T03:34:01;2.30;99.90
7384;DHT22;3733;47.994;8.820;2024-03-08T03:36:30;2.30;99.90
7384;DHT22;3733;47.994;8.820;2024-03-08T03:38:55;2.20;99.90
7384;DHT22;3733;47.994;8.820;2024-03-08T03:41:36;2.20;99.90
7384;DHT22;3733;47.994;8.820;2024-03-08T03:44:02;2.20;99.90
7384;DHT22;3733;47.994;8.820;2024-03-08T03:46:27;2.20;99.90
7384;DHT22;3733;47.994;8.820;2024-03-08T03:48:54;2.20;99.90
7384;DHT22;3733;47.994;8.820;2024-03-08T03:51:21;2.20;99.90
7384;DHT22;3733;47.994;8.820;2024-03-08T03:53:46;2.10;99.90
7384;DHT22;3733;47.994;8.820;2024-03-08T03:56:12;2.10;99.90
7384;DHT22;3733;47.994;8.820;2024-03-08T03:58:38;2.10;99.90
7384;DHT22;3733;47.994;8.820;2024-03-08T04:01:05;2.10;99.90
7384;DHT22;3733;47.994;8.820;2024-03-08T04:03:30;2.10;99.90
7384;DHT22;3733;47.994;8.820;2024-03-08T04:05:56;2.10;99.90
7384;DHT22;3733;47.994;8.820;2024-03-08T04:08:22;2.10;99.90
7384;DHT22;3733;47.994;8.820;2024-03-08T04:10:50;2.10;99.90
7384;DHT22;3733;47.994;8.820;2024-03-08T04:13:16;2.00;99.90
7384;DHT22;3733;47.994;8.820;2024-03-08T04:15:42;1.90;99.90
7384;DHT22;3733;47.994;8.820;2024-03-08T04:18:09;1.90;99.90
7384;DHT22;3733;47.994;8.820;2024-03-08T04:20:35;1.90;99.90
7384;DHT22;3733;47.994;8.820;2024-03-08T04:23:01;1.90;99.90
7384;DHT22;3733;47.994;8.820;2024-03-08T04:25:27;2.00;99.90
7384;DHT22;3733;47.994;8.820;2024-03-08T04:27:53;2.00;99.90
7384;DHT22;3733;47.994;8.820;2024-03-08T04:30:18;2.00;99.90
7384;DHT22;3733;47.994;8.820;2024-03-08T04:32:46;2.00;99.90
7384;DHT22;3733;47.994;8.820;2024-03-08T04:35:12;2.00;99.90
7384;DHT22;3733;47.994;8.820;2024-03-08T04:37:38;2.00;99.90
7384;DHT22;3733;47.994;8.820;2024-03-08T04:40:05;2.00;99.90
7384;DHT22;3733;47.994;8.820;2024-03-08T04:42:31;2.00;99.90
7384;DHT22;3733;47.994;8.820;2024-03-08T04:45:00;2.00;99.90
7384;DHT22;3733;47.994;8.820;2024-03-08T04:47:26;2.00;99.90
7384;DHT22;3733;47.994;8.820;2024-03-08T04:49:52;2.00;99.90
7384;DHT22;3733;47.994;8.820;2024-03-08T04:52:17;1.90;99.90
7384;DHT22;3733;47.994;8.820;2024-03-08T04:54:43;1.90;99.90
7384;DHT22;3733;47.994;8.820;2024-03-08T04:57:10;1.90;99.90
7384;DHT22;3733;47.994;8.820;2024-03-08T04:59:36;2.00;99.90
7384;DHT22;3733;47.994;8.820;2024-03-08T05:02:02;2.00;99.90
7384;DHT22;3733;47.994;8.820;2024-03-08T05:04:28;2.00;99.90
7384;DHT22;3733;47.994;8.820;2024-03-08T05:06:54;2.00;99.90
7384;DHT22;3733;47.994;8.820;2024-03-08T05:09:20;2.10;99.90
7384;DHT22;3733;47.994;8.820;2024-03-08T05:11:46;2.10;99.90
7384;DHT22;3733;47.994;8.820;2024-03-08T05:14:13;2.10;99.90
7384;DHT22;3733;47.994;8.820;2024-03-08T05:16:45;2.10;99.90
7384;DHT22;3733;47.994;8.820;2024-03-08T05:19:16;2.10;99.90
7384;DHT22;3733;47.994;8.820;2024-03-08T05:21:51;2.10;99.90
7384;DHT22;3733;47.994;8.820;2024-03-08T05:24:17;2.00;99.90
7384;DHT22;3733;47.994;8.820;2024-03-08T05:26:43;2.00;99.90
7384;DHT22;3733;47.994;8.820;2024-03-08T05:29:08;2.00;99.90
7384;DHT22;3733;47.994;8.820;2024-03-08T05:31:50;2.00;99.90
7384;DHT22;3733;47.994;8.820;2024-03-08T05:34:17;1.90;99.90
7384;DHT22;3733;47.994;8.820;2024-03-08T05:36:45;1.90;99.90
7384;DHT22;3733;47.994;8.820;2024-03-08T05:39:18;1.80;99.90
7384;DHT22;3733;47.994;8.820;2024-03-08T05:41:45;1.80;99.90
7384;DHT22;3733;47.994;8.820;2024-03-08T05:44:11;1.80;99.90
7384;DHT22;3733;47.994;8.820;2024-03-08T05:46:37;1.80;99.90
7384;DHT22;3733;47.994;8.820;2024-03-08T05:49:04;1.80;99.90
7384;DHT22;3733;47.994;8.820;2024-03-08T05:51:31;1.80;99.90
7384;DHT22;3733;47.994;8.820;2024-03-08T05:54:06;1.80;99.90
7384;DHT22;3733;47.994;8.820;2024-03-08T05:56:32;1.80;99.90
7384;DHT22;3733;47.994;8.820;2024-03-08T05:58:58;1.80;99.90
7384;DHT22;3733;47.994;8.820;2024-03-08T06:01:24;1.80;99.90
7384;DHT22;3733;47.994;8.820;2024-03-08T06:03:52;1.80;99.90
7384;DHT22;3733;47.994;8.820;2024-03-08T06:06:19;1.80;99.90
7384;DHT22;3733;47.994;8.820;2024-03-08T06:08:47;1.80;99.90
7384;DHT22;3733;47.994;8.820;2024-03-08T06:11:14;1.80;99.90
7384;DHT22;3733;47.994;8.820;2024-03-08T06:13:40;1.80;99.90
7384;DHT22;3733;47.994;8.820;2024-03-08T06:16:06;1.80;99.90
7384;DHT22;3733;47.994;8.820;2024-03-08T06:18:34;1.80;99.90
7384;DHT22;3733;47.994;8.820;2024-03-08T06:21:03;1.70;99.90
7384;DHT22;3733;47.994;8.820;2024-03-08T06:23:30;1.80;99.90
7384;DHT22;3733;47.994;8.820;2024-03-08T06:25:56;1.80;99.90
7384;DHT22;3733;47.994;8.820;2024-03-08T06:28:23;1.80;99.90
7384;DHT22;3733;47.994;8.820;2024-03-08T06:30:48;1.70;99.90
7384;DHT22;3733;47.994;8.820;2024-03-08T06:33:16;1.70;99.90
7384;DHT22;3733;47.994;8.820;2024-03-08T06:35:41;1.70;99.90
7384;DHT22;3733;47.994;8.820;2024-03-08T06:38:07;1.80;99.90
7384;DHT22;3733;47.994;8.820;2024-03-08T06:40:32;1.80;99.90
7384;DHT22;3733;47.994;8.820;2024-03-08T06:42:58;1.80;99.90
7384;DHT22;3733;47.994;8.820;2024-03-08T06:45:24;1.80;99.90
7384;DHT22;3733;47.994;8.820;2024-03-08T06:47:51;1.80;99.90
7384;DHT22;3733;47.994;8.820;2024-03-08T06:50:17;1.80;99.90
7384;DHT22;3733;47.994;8.820;2024-03-08T06:52:42;1.80;99.90
7384;DHT22;3733;47.994;8.820;2024-03-08T06:55:10;1.80;99.90
7384;DHT22;3733;47.994;8.820;2024-03-08T06:57:39;1.80;99.90
7384;DHT22;3733;47.994;8.820;2024-03-08T07:00:07;1.90;99.90
7384;DHT22;3733;47.994;8.820;2024-03-08T07:02:35;1.90;99.90
7384;DHT22;3733;47.994;8.820;2024-03-08T07:05:01;1.90;99.90
7384;DHT22;3733;47.994;8.820;2024-03-08T07:07:27;1.90;99.90
7384;DHT22;3733;47.994;8.820;2024-03-08T07:09:53;1.90;99.90
7384;DHT22;3733;47.994;8.820;2024-03-08T07:12:18;1.90;99.90
7384;DHT22;3733;47.994;8.820;2024-03-08T07:14:46;2.00;99.90
7384;DHT22;3733;47.994;8.820;2024-03-08T07:17:12;2.00;99.90
7384;DHT22;3733;47.994;8.820;2024-03-08T07:19:38;2.00;99.90
7384;DHT22;3733;47.994;8.820;2024-03-08T07:22:04;2.00;99.90
7384;DHT22;3733;47.994;8.820;2024-03-08T07:24:36;2.10;99.90
7384;DHT22;3733;47.994;8.820;2024-03-08T07:27:05;2.10;99.90
7384;DHT22;3733;47.994;8.820;2024-03-08T07:29:33;2.10;99.90
7384;DHT22;3733;47.994;8.820;2024-03-08T07:31:59;2.10;99.90
7384;DHT22;3733;47.994;8.820;2024-03-08T07:34:38;2.20;99.90
7384;DHT22;3733;47.994;8.820;2024-03-08T07:37:05;2.20;99.90
7384;DHT22;3733;47.994;8.820;2024-03-08T07:39:31;2.20;99.90
7384;DHT22;3733;47.994;8.820;2024-03-08T07:41:57;2.20;99.90
7384;DHT22;3733;47.994;8.820;2024-03-08T07:44:23;2.20;99.90
7384;DHT22;3733;47.994;8.820;2024-03-08T07:46:49;2.20;99.90
7384;DHT22;3733;47.994;8.820;2024-03-08T07:49:14;2.10;99.90
7384;DHT22;3733;47.994;8.820;2024-03-08T07:51:40;2.10;99.90
7384;DHT22;3733;47.994;8.820;2024-03-08T07:54:06;2.20;99.90
7384;DHT22;3733;47.994;8.820;2024-03-08T07:56:34;2.10;99.90
7384;DHT22;3733;47.994;8.820;2024-03-08T07:59:02;2.10;99.90
7384;DHT22;3733;47.994;8.820;2024-03-08T08:01:29;2.20;99.90
7384;DHT22;3733;47.994;8.820;2024-03-08T08:03:56;2.20;99.90
7384;DHT22;3733;47.994;8.820;2024-03-08T08:06:22;2.20;99.90
7384;DHT22;3733;47.994;8.820;2024-03-08T08:08:48;2.30;99.90
7384;DHT22;3733;47.994;8.820;2024-03-08T08:11:13;2.20;99.90
7384;DHT22;3733;47.994;8.820;2024-03-08T08:13:42;2.20;99.90
7384;DHT22;3733;47.994;8.820;2024-03-08T08:16:09;2.30;99.90
7384;DHT22;3733;47.994;8.820;2024-03-08T08:18:36;2.30;99.90
7384;DHT22;3733;47.994;8.820;2024-03-08T08:21:02;2.30;99.90
7384;DHT22;3733;47.994;8.820;2024-03-08T08:23:28;2.30;99.90
7384;DHT22;3733;47.994;8.820;2024-03-08T08:25:55;2.30;99.90
7384;DHT22;3733;47.994;8.820;2024-03-08T08:28:21;2.30;99.90
7384;DHT22;3733;47.994;8.820;2024-03-08T08:30:47;2.40;99.90
7384;DHT22;3733;47.994;8.820;2024-03-08T08:33:14;2.40;99.90
7384;DHT22;3733;47.994;8.820;2024-03-08T08:35:40;2.40;99.90
7384;DHT22;3733;47.994;8.820;2024-03-08T08:38:06;2.50;99.90
7384;DHT22;3733;47.994;8.820;2024-03-08T08:40:33;2.50;99.90
7384;DHT22;3733;47.994;8.820;2024-03-08T08:42:59;2.50;99.90
7384;DHT22;3733;47.994;8.820;2024-03-08T08:45:25;2.60;99.90
7384;DHT22;3733;47.994;8.820;2024-03-08T08:47:51;2.60;99.90
7384;DHT22;3733;47.994;8.820;2024-03-08T08:50:17;2.60;99.90
7384;DHT22;3733;47.994;8.820;2024-03-08T08:52:49;2.60;99.90
7384;DHT22;3733;47.994;8.820;2024-03-08T08:55:15;2.60;99.90
7384;DHT22;3733;47.994;8.820;2024-03-08T08:57:41;2.60;99.90
7384;DHT22;3733;47.994;8.820;2024-03-08T09:00:07;2.60;99.90
7384;DHT22;3733;47.994;8.820;2024-03-08T09:02:34;2.60;99.90
7384;DHT22;3733;47.994;8.820;2024-03-08T09:05:00;2.70;99.90
7384;DHT22;3733;47.994;8.820;2024-03-08T09:07:26;2.70;99.90
7384;DHT22;3733;47.994;8.820;2024-03-08T09:09:53;2.70;99.90
7384;DHT22;3733;47.994;8.820;2024-03-08T09:12:23;2.70;99.90
7384;DHT22;3733;47.994;8.820;2024-03-08T09:14:48;2.70;99.90
7384;DHT22;3733;47.994;8.820;2024-03-08T09:17:14;2.70;99.90
7384;DHT22;3733;47.994;8.820;2024-03-08T09:19:43;2.80;99.90
7384;DHT22;3733;47.994;8.820;2024-03-08T09:22:09;2.80;99.90
7384;DHT22;3733;47.994;8.820;2024-03-08T09:24:34;2.90;99.90
7384;DHT22;3733;47.994;8.820;2024-03-08T09:27:00;2.90;99.90
7384;DHT22;3733;47.994;8.820;2024-03-08T09:29:25;2.90;99.90
7384;DHT22;3733;47.994;8.820;2024-03-08T09:31:51;3.00;99.90
7384;DHT22;3733;47.994;8.820;2024-03-08T09:34:17;3.00;99.90
7384;DHT22;3733;47.994;8.820;2024-03-08T09:36:44;3.10;99.90
7384;DHT22;3733;47.994;8.820;2024-03-08T09:39:10;3.20;99.90
7384;DHT22;3733;47.994;8.820;2024-03-08T09:41:42;3.20;99.90
7384;DHT22;3733;47.994;8.820;2024-03-08T09:44:09;3.20;99.90
7384;DHT22;3733;47.994;8.820;2024-03-08T09:46:34;3.20;99.90
7384;DHT22;3733;47.994;8.820;2024-03-08T09:49:01;3.20;99.90
7384;DHT22;3733;47.994;8.820;2024-03-08T09:51:33;3.20;99.90
7384;DHT22;3733;47.994;8.820;2024-03-08T09:53:59;3.20;99.90
7384;DHT22;3733;47.994;8.820;2024-03-08T09:56:25;3.10;99.90
7384;DHT22;3733;47.994;8.820;2024-03-08T09:58:53;3.10;99.90
7384;DHT22;3733;47.994;8.820;2024-03-08T10:01:54;3.10;99.90
7384;DHT22;3733;47.994;8.820;2024-03-08T10:04:22;3.20;99.90
7384;DHT22;3733;47.994;8.820;2024-03-08T10:06:48;3.20;99.90
7384;DHT22;3733;47.994;8.820;2024-03-08T10:09:14;3.30;99.90
7384;DHT22;3733;47.994;8.820;2024-03-08T10:11:41;3.30;99.90
7384;DHT22;3733;47.994;8.820;2024-03-08T10:14:08;3.40;99.90
7384;DHT22;3733;47.994;8.820;2024-03-08T10:16:34;3.40;99.90
7384;DHT22;3733;47.994;8.820;2024-03-08T10:19:00;3.40;99.90
7384;DHT22;3733;47.994;8.820;2024-03-08T10:21:26;3.50;99.90
7384;DHT22;3733;47.994;8.820;2024-03-08T10:23:52;3.50;99.90
7384;DHT22;3733;47.994;8.820;2024-03-08T10:26:19;3.50;99.90
7384;DHT22;3733;47.994;8.820;2024-03-08T10:28:51;3.50;99.90
7384;DHT22;3733;47.994;8.820;2024-03-08T10:31:18;3.50;99.90
7384;DHT22;3733;47.994;8.820;2024-03-08T10:33:45;3.60;99.90
7384;DHT22;3733;47.994;8.820;2024-03-08T10:36:12;3.60;99.90
7384;DHT22;3733;47.994;8.820;2024-03-08T10:38:39;3.60;99.90
7384;DHT22;3733;47.994;8.820;2024-03-08T10:41:15;3.60;99.90
7384;DHT22;3733;47.994;8.820;2024-03-08T10:46:52;3.70;99.90
7384;DHT22;3733;47.994;8.820;2024-03-08T10:49:26;3.80;99.90
7384;DHT22;3733;47.994;8.820;2024-03-08T10:51:56;3.90;99.90
7384;DHT22;3733;47.994;8.820;2024-03-08T10:54:23;4.00;99.90
7384;DHT22;3733;47.994;8.820;2024-03-08T10:56:51;4.00;99.90
7384;DHT22;3733;47.994;8.820;2024-03-08T10:59:18;4.10;99.10
7384;DHT22;3733;47.994;8.820;2024-03-08T11:01:44;4.10;98.80
7384;DHT22;3733;47.994;8.820;2024-03-08T11:04:10;4.10;98.60
7384;DHT22;3733;47.994;8.820;2024-03-08T11:09:30;4.20;98.50
7384;DHT22;3733;47.994;8.820;2024-03-08T11:12:27;4.20;97.70
7384;DHT22;3733;47.994;8.820;2024-03-08T11:15:01;4.30;96.20
7384;DHT22;3733;47.994;8.820;2024-03-08T11:19:58;4.50;94.40
7384;DHT22;3733;47.994;8.820;2024-03-08T11:22:28;4.50;94.50
7384;DHT22;3733;47.994;8.820;2024-03-08T11:25:02;4.60;94.30
7384;DHT22;3733;47.994;8.820;2024-03-08T11:27:31;4.70;94.30
7384;DHT22;3733;47.994;8.820;2024-03-08T11:30:07;4.80;94.00
7384;DHT22;3733;47.994;8.820;2024-03-08T11:32:52;5.00;92.00
7384;DHT22;3733;47.994;8.820;2024-03-08T11:35:20;5.10;89.30
7384;DHT22;3733;47.994;8.820;2024-03-08T11:37:46;5.10;88.30
7384;DHT22;3733;47.994;8.820;2024-03-08T11:40:14;5.30;89.30
7384;DHT22;3733;47.994;8.820;2024-03-08T11:42:44;5.40;88.70
7384;DHT22;3733;47.994;8.820;2024-03-08T11:45:12;5.40;86.50
7384;DHT22;3733;47.994;8.820;2024-03-08T11:47:41;5.30;84.20
7384;DHT22;3733;47.994;8.820;2024-03-08T11:50:07;5.30;85.30
7384;DHT22;3733;47.994;8.820;2024-03-08T11:52:36;5.30;86.80
7384;DHT22;3733;47.994;8.820;2024-03-08T11:55:03;5.40;87.40
7384;DHT22;3733;47.994;8.820;2024-03-08T11:57:30;5.50;87.40
7384;DHT22;3733;47.994;8.820;2024-03-08T11:59:57;5.60;84.30
7384;DHT22;3733;47.994;8.820;2024-03-08T12:02:24;5.60;81.70
7384;DHT22;3733;47.994;8.820;2024-03-08T12:04:57;5.60;81.40
7384;DHT22;3733;47.994;8.820;2024-03-08T12:07:25;5.60;81.50
7384;DHT22;3733;47.994;8.820;2024-03-08T12:10:21;5.60;83.00
7384;DHT22;3733;47.994;8.820;2024-03-08T12:12:58;5.70;81.30
7384;DHT22;3733;47.994;8.820;2024-03-08T12:15:29;5.70;80.80
7384;DHT22;3733;47.994;8.820;2024-03-08T12:17:55;5.80;82.60
7384;DHT22;3733;47.994;8.820;2024-03-08T12:20:25;5.90;81.20
7384;DHT22;3733;47.994;8.820;2024-03-08T12:22:53;5.90;79.20
7384;DHT22;3733;47.994;8.820;2024-03-08T12:25:19;5.90;79.30
7384;DHT22;3733;47.994;8.820;2024-03-08T12:27:46;6.00;78.60
7384;DHT22;3733;47.994;8.820;2024-03-08T12:30:23;6.00;79.10
7384;DHT22;3733;47.994;8.820;2024-03-08T12:35:14;7.10;85.30
7384;DHT22;3733;47.994;8.820;2024-03-08T12:37:40;7.60;77.00
7384;DHT22;3733;47.994;8.820;2024-03-08T12:40:09;7.90;73.00
7384;DHT22;3733;47.994;8.820;2024-03-08T12:42:35;7.90;70.00
7384;DHT22;3733;47.994;8.820;2024-03-08T12:45:01;7.80;68.50
7384;DHT22;3733;47.994;8.820;2024-03-08T12:47:28;7.90;69.90
7384;DHT22;3733;47.994;8.820;2024-03-08T12:49:55;8.00;68.10
7384;DHT22;3733;47.994;8.820;2024-03-08T12:52:21;7.90;67.50
7384;DHT22;3733;47.994;8.820;2024-03-08T12:54:46;7.90;67.90
7384;DHT22;3733;47.994;8.820;2024-03-08T12:57:13;8.30;68.20
7384;DHT22;3733;47.994;8.820;2024-03-08T12:59:39;8.80;67.90
7384;DHT22;3733;47.994;8.820;2024-03-08T13:02:05;9.30;66.50
7384;DHT22;3733;47.994;8.820;2024-03-08T13:04:32;9.80;65.10
7384;DHT22;3733;47.994;8.820;2024-03-08T13:06:58;10.00;62.10
7384;DHT22;3733;47.994;8.820;2024-03-08T13:09:23;10.20;59.90
7384;DHT22;3733;47.994;8.820;2024-03-08T13:11:52;10.20;59.70
7384;DHT22;3733;47.994;8.820;2024-03-08T13:14:20;10.30;60.00
7384;DHT22;3733;47.994;8.820;2024-03-08T13:16:46;10.50;59.50
7384;DHT22;3733;47.994;8.820;2024-03-08T13:19:13;10.60;58.80
7384;DHT22;3733;47.994;8.820;2024-03-08T13:21:39;10.80;58.70
7384;DHT22;3733;47.994;8.820;2024-03-08T13:24:05;11.00;58.00
7384;DHT22;3733;47.994;8.820;2024-03-08T13:26:31;11.20;58.00
7384;DHT22;3733;47.994;8.820;2024-03-08T13:28:59;11.40;57.40
7384;DHT22;3733;47.994;8.820;2024-03-08T13:31:25;11.40;56.80
7384;DHT22;3733;47.994;8.820;2024-03-08T13:33:50;11.60;56.50
7384;DHT22;3733;47.994;8.820;2024-03-08T13:36:23;11.80;55.60
7384;DHT22;3733;47.994;8.820;2024-03-08T13:38:49;11.90;54.80
7384;DHT22;3733;47.994;8.820;2024-03-08T13:41:15;12.10;54.80
7384;DHT22;3733;47.994;8.820;2024-03-08T13:43:46;12.40;54.20
7384;DHT22;3733;47.994;8.820;2024-03-08T13:46:15;12.50;53.80
7384;DHT22;3733;47.994;8.820;2024-03-08T13:48:40;12.60;53.30
7384;DHT22;3733;47.994;8.820;2024-03-08T13:51:07;12.70;52.90
7384;DHT22;3733;47.994;8.820;2024-03-08T13:53:33;12.70;52.90
7384;DHT22;3733;47.994;8.820;2024-03-08T13:56:03;12.70;52.10
7384;DHT22;3733;47.994;8.820;2024-03-08T13:58:29;12.70;52.10
7384;DHT22;3733;47.994;8.820;2024-03-08T14:00:55;12.60;52.60
7384;DHT22;3733;47.994;8.820;2024-03-08T14:03:21;12.70;52.70
7384;DHT22;3733;47.994;8.820;2024-03-08T14:05:46;12.70;52.00
7384;DHT22;3733;47.994;8.820;2024-03-08T14:08:12;12.80;52.10
7384;DHT22;3733;47.994;8.820;2024-03-08T14:10:39;12.80;51.80
7384;DHT22;3733;47.994;8.820;2024-03-08T14:13:05;12.80;51.40
7384;DHT22;3733;47.994;8.820;2024-03-08T14:15:32;13.00;51.50
7384;DHT22;3733;47.994;8.820;2024-03-08T14:17:57;13.20;51.20
7384;DHT22;3733;47.994;8.820;2024-03-08T14:20:23;13.40;51.00
7384;DHT22;3733;47.994;8.820;2024-03-08T14:22:54;13.60;50.80
7384;DHT22;3733;47.994;8.820;2024-03-08T14:25:20;13.80;50.80
7384;DHT22;3733;47.994;8.820;2024-03-08T14:27:49;14.00;50.00
7384;DHT22;3733;47.994;8.820;2024-03-08T14:30:15;14.20;49.00
7384;DHT22;3733;47.994;8.820;2024-03-08T14:33:04;14.20;48.50
7384;DHT22;3733;47.994;8.820;2024-03-08T14:35:31;14.30;48.50
7384;DHT22;3733;47.994;8.820;2024-03-08T14:37:57;14.50;48.60
7384;DHT22;3733;47.994;8.820;2024-03-08T14:40:24;14.50;48.10
7384;DHT22;3733;47.994;8.820;2024-03-08T14:42:51;14.60;47.70
7384;DHT22;3733;47.994;8.820;2024-03-08T14:45:16;14.60;47.30
7384;DHT22;3733;47.994;8.820;2024-03-08T14:47:48;14.70;46.60
7384;DHT22;3733;47.994;8.820;2024-03-08T14:50:18;14.80;47.10
7384;DHT22;3733;47.994;8.820;2024-03-08T14:52:44;14.80;46.50
7384;DHT22;3733;47.994;8.820;2024-03-08T14:55:10;14.90;46.00
7384;DHT22;3733;47.994;8.820;2024-03-08T14:57:43;14.90;45.10
7384;DHT22;3733;47.994;8.820;2024-03-08T15:00:11;15.00;45.70
7384;DHT22;3733;47.994;8.820;2024-03-08T15:02:55;15.20;45.90
7384;DHT22;3733;47.994;8.820;2024-03-08T15:05:22;15.30;45.50
7384;DHT22;3733;47.994;8.820;2024-03-08T15:07:52;15.50;45.40
7384;DHT22;3733;47.994;8.820;2024-03-08T15:10:18;15.60;44.90
7384;DHT22;3733;47.994;8.820;2024-03-08T15:12:46;15.60;45.00
7384;DHT22;3733;47.994;8.820;2024-03-08T15:15:12;15.80;44.70
7384;DHT22;3733;47.994;8.820;2024-03-08T15:17:39;15.90;44.40
7384;DHT22;3733;47.994;8.820;2024-03-08T15:20:06;16.00;43.70
7384;DHT22;3733;47.994;8.820;2024-03-08T15:22:42;16.20;42.60
7384;DHT22;3733;47.994;8.820;2024-03-08T15:25:07;16.30;41.80
7384;DHT22;3733;47.994;8.820;2024-03-08T15:27:33;16.20;41.70
7384;DHT22;3733;47.994;8.820;2024-03-08T15:30:03;16.10;41.80
7384;DHT22;3733;47.994;8.820;2024-03-08T15:32:33;15.80;41.60
7384;DHT22;3733;47.994;8.820;2024-03-08T15:34:58;15.50;42.10
7384;DHT22;3733;47.994;8.820;2024-03-08T15:37:24;15.30;42.10
7384;DHT22;3733;47.994;8.820;2024-03-08T15:39:51;14.70;41.80
7384;DHT22;3733;47.994;8.820;2024-03-08T15:42:16;13.80;42.30
7384;DHT22;3733;47.994;8.820;2024-03-08T15:44:42;12.80;43.30
7384;DHT22;3733;47.994;8.820;2024-03-08T15:47:08;11.80;44.80
7384;DHT22;3733;47.994;8.820;2024-03-08T15:49:37;11.00;46.50
7384;DHT22;3733;47.994;8.820;2024-03-08T15:52:02;10.30;48.10
7384;DHT22;3733;47.994;8.820;2024-03-08T15:54:29;9.70;50.30
7384;DHT22;3733;47.994;8.820;2024-03-08T15:56:55;9.20;51.20
7384;DHT22;3733;47.994;8.820;2024-03-08T15:59:20;8.90;52.10
7384;DHT22;3733;47.994;8.820;2024-03-08T16:01:46;8.50;52.60
7384;DHT22;3733;47.994;8.820;2024-03-08T16:04:16;8.30;53.40
7384;DHT22;3733;47.994;8.820;2024-03-08T16:06:42;8.10;54.30
7384;DHT22;3733;47.994;8.820;2024-03-08T16:09:09;7.90;54.70
7384;DHT22;3733;47.994;8.820;2024-03-08T16:11:41;7.80;55.30
7384;DHT22;3733;47.994;8.820;2024-03-08T16:14:06;7.70;55.70
7384;DHT22;3733;47.994;8.820;2024-03-08T16:16:39;7.60;56.30
7384;DHT22;3733;47.994;8.820;2024-03-08T16:19:04;7.50;56.60
7384;DHT22;3733;47.994;8.820;2024-03-08T16:21:33;7.40;56.70
7384;DHT22;3733;47.994;8.820;2024-03-08T16:23:59;7.30;57.10
7384;DHT22;3733;47.994;8.820;2024-03-08T16:26:25;7.20;57.30
7384;DHT22;3733;47.994;8.820;2024-03-08T16:28:53;7.20;57.70